sensor_id;sensor_type;location;lat;lon;timestamp;pressure;altitude;pressure_sealevel;temperature;humidity
75157;BME280;63736;50.076;8.198;2023-04-29T00:02:03;99178.84;;;10.33;100.00
75157;BME280;63736;50.076;8.198;2023-04-29T00:04:28;99187.44;;;10.36;100.00
75157;BME280;63736;50.076;8.198;2023-04-29T00:06:54;99186.19;;;10.40;100.00
75157;BME280;63736;50.076;8.198;2023-04-29T00:09:20;99179.59;;;10.45;100.00
75157;BME280;63736;50.076;8.198;2023-04-29T00:11:46;99174.56;;;10.51;100.00
75157;BME280;63736;50.076;8.198;2023-04-29T00:14:12;99174.69;;;10.60;100.00
75157;BME280;63736;50.076;8.198;2023-04-29T00:16:37;99174.16;;;10.66;100.00
75157;BME280;63736;50.076;8.198;2023-04-29T00:19:02;99181.34;;;10.75;100.00
75157;BME280;63736;50.076;8.198;2023-04-29T00:21:27;99176.28;;;10.82;100.00
75157;BME280;63736;50.076;8.198;2023-04-29T00:23:53;99185.28;;;10.90;100.00
75157;BME280;63736;50.076;8.198;2023-04-29T00:26:18;99179.41;;;10.97;100.00
75157;BME280;63736;50.076;8.198;2023-04-29T00:28:43;99184.72;;;11.06;100.00
75157;BME280;63736;50.076;8.198;2023-04-29T00:31:09;99184.16;;;11.13;100.00
75157;BME280;63736;50.076;8.198;2023-04-29T00:33:34;99181.91;;;11.18;100.00
75157;BME280;63736;50.076;8.198;2023-04-29T00:36:00;99184.28;;;11.21;100.00
75157;BME280;63736;50.076;8.198;2023-04-29T00:38:26;99184.72;;;11.26;100.00
75157;BME280;63736;50.076;8.198;2023-04-29T00:40:51;99173.75;;;11.29;100.00
75157;BME280;63736;50.076;8.198;2023-04-29T00:43:17;99173.47;;;11.32;100.00
75157;BME280;63736;50.076;8.198;2023-04-29T00:45:42;99185.84;;;11.33;100.00
75157;BME280;63736;50.076;8.198;2023-04-29T00:48:08;99185.84;;;11.33;100.00
75157;BME280;63736;50.076;8.198;2023-04-29T00:50:33;99181.47;;;11.32;100.00
75157;BME280;63736;50.076;8.198;2023-04-29T00:52:59;99183.31;;;11.32;100.00
75157;BME280;63736;50.076;8.198;2023-04-29T00:55:25;99186.97;;;11.31;100.00
75157;BME280;63736;50.076;8.198;2023-04-29T00:57:51;99184.44;;;11.29;100.00
75157;BME280;63736;50.076;8.198;2023-04-29T01:00:17;99180.38;;;11.25;100.00
75157;BME280;63736;50.076;8.198;2023-04-29T01:02:43;99187.53;;;11.24;100.00
75157;BME280;63736;50.076;8.198;2023-04-29T01:05:10;99185.72;;;11.25;100.00
75157;BME280;63736;50.076;8.198;2023-04-29T01:07:47;99189.09;;;11.27;100.00
75157;BME280;63736;50.076;8.198;2023-04-29T01:13:29;99185.28;;;11.30;100.00
75157;BME280;63736;50.076;8.198;2023-04-29T01:16:10;99191.34;;;11.32;100.00
75157;BME280;63736;50.076;8.198;2023-04-29T01:18:51;99190.47;;;11.31;100.00
75157;BME280;63736;50.076;8.198;2023-04-29T01:21:19;99187.81;;;11.31;100.00
75157;BME280;63736;50.076;8.198;2023-04-29T01:23:44;99181.06;;;11.27;100.00
75157;BME280;63736;50.076;8.198;2023-04-29T01:26:09;99186.84;;;11.22;100.00
75157;BME280;63736;50.076;8.198;2023-04-29T01:28:49;99182.75;;;11.18;100.00
75157;BME280;63736;50.076;8.198;2023-04-29T01:31:24;99196.13;;;11.18;100.00
75157;BME280;63736;50.076;8.198;2023-04-29T01:34:08;99193.88;;;11.14;100.00
75157;BME280;63736;50.076;8.198;2023-04-29T01:37:17;99196.84;;;11.11;100.00
75157;BME280;63736;50.076;8.198;2023-04-29T01:40:04;99198.66;;;11.10;100.00
75157;BME280;63736;50.076;8.198;2023-04-29T01:42:40;99196.00;;;11.10;100.00
75157;BME280;63736;50.076;8.198;2023-04-29T01:45:10;99200.50;;;11.10;100.00
75157;BME280;63736;50.076;8.198;2023-04-29T01:47:36;99199.63;;;11.09;100.00
75157;BME280;63736;50.076;8.198;2023-04-29T01:50:02;99202.19;;;11.11;100.00
75157;BME280;63736;50.076;8.198;2023-04-29T01:52:27;99191.50;;;11.11;100.00
75157;BME280;63736;50.076;8.198;2023-04-29T01:54:53;99203.59;;;11.15;100.00
75157;BME280;63736;50.076;8.198;2023-04-29T01:57:18;99206.69;;;11.20;100.00
75157;BME280;63736;50.076;8.198;2023-04-29T01:59:43;99201.78;;;11.25;100.00
75157;BME280;63736;50.076;8.198;2023-04-29T02:02:08;99196.97;;;11.29;100.00
75157;BME280;63736;50.076;8.198;2023-04-29T02:04:34;99187.81;;;11.31;100.00
75157;BME280;63736;50.076;8.198;2023-04-29T02:06:59;99200.91;;;11.34;100.00
75157;BME280;63736;50.076;8.198;2023-04-29T02:09:25;99202.47;;;11.37;100.00
75157;BME280;63736;50.076;8.198;2023-04-29T02:11:51;99193.56;;;11.36;100.00
75157;BME280;63736;50.076;8.198;2023-04-29T02:14:16;99184.56;;;11.37;100.00
75157;BME280;63736;50.076;8.198;2023-04-29T02:16:44;99186.28;;;11.38;100.00
75157;BME280;63736;50.076;8.198;2023-04-29T02:19:10;99193.47;;;11.38;100.00
75157;BME280;63736;50.076;8.198;2023-04-29T02:21:35;99190.78;;;11.38;100.00
75157;BME280;63736;50.076;8.198;2023-04-29T02:24:00;99190.63;;;11.39;100.00
75157;BME280;63736;50.076;8.198;2023-04-29T02:26:26;99194.72;;;11.44;100.00
75157;BME280;63736;50.076;8.198;2023-04-29T02:28:52;99207.78;;;11.47;100.00
75157;BME280;63736;50.076;8.198;2023-04-29T02:31:17;99195.97;;;11.49;100.00
75157;BME280;63736;50.076;8.198;2023-04-29T02:33:42;99201.72;;;11.54;100.00
75157;BME280;63736;50.076;8.198;2023-04-29T02:36:07;99204.25;;;11.56;100.00
75157;BME280;63736;50.076;8.198;2023-04-29T02:38:33;99209.34;;;11.59;100.00
75157;BME280;63736;50.076;8.198;2023-04-29T02:40:58;99205.53;;;11.62;100.00
75157;BME280;63736;50.076;8.198;2023-04-29T02:43:23;99221.28;;;11.65;100.00
75157;BME280;63736;50.076;8.198;2023-04-29T02:45:49;99222.00;;;11.67;100.00
75157;BME280;63736;50.076;8.198;2023-04-29T02:48:14;99224.53;;;11.68;100.00
75157;BME280;63736;50.076;8.198;2023-04-29T02:50:39;99220.00;;;11.69;100.00
75157;BME280;63736;50.076;8.198;2023-04-29T02:53:05;99228.75;;;11.71;100.00
75157;BME280;63736;50.076;8.198;2023-04-29T02:55:30;99220.41;;;11.74;100.00
75157;BME280;63736;50.076;8.198;2023-04-29T02:57:55;99226.31;;;11.78;100.00
75157;BME280;63736;50.076;8.198;2023-04-29T03:00:21;99229.41;;;11.83;100.00
75157;BME280;63736;50.076;8.198;2023-04-29T03:02:46;99229.97;;;11.86;100.00
75157;BME280;63736;50.076;8.198;2023-04-29T03:05:11;99233.50;;;11.87;100.00
75157;BME280;63736;50.076;8.198;2023-04-29T03:07:37;99228.84;;;11.89;100.00
75157;BME280;63736;50.076;8.198;2023-04-29T03:10:03;99240.22;;;11.91;100.00
75157;BME280;63736;50.076;8.198;2023-04-29T03:12:28;99229.69;;;11.89;100.00
75157;BME280;63736;50.076;8.198;2023-04-29T03:14:53;99232.50;;;11.88;100.00
75157;BME280;63736;50.076;8.198;2023-04-29T03:17:19;99233.34;;;11.88;100.00
75157;BME280;63736;50.076;8.198;2023-04-29T03:19:44;99223.75;;;11.86;100.00
75157;BME280;63736;50.076;8.198;2023-04-29T03:22:09;99233.50;;;11.87;100.00
75157;BME280;63736;50.076;8.198;2023-04-29T03:24:36;99224.91;;;11.83;100.00
75157;BME280;63736;50.076;8.198;2023-04-29T03:27:02;99233.06;;;11.82;100.00
75157;BME280;63736;50.076;8.198;2023-04-29T03:29:28;99234.06;;;11.81;100.00
75157;BME280;63736;50.076;8.198;2023-04-29T03:31:54;99229.00;;;11.78;100.00
75157;BME280;63736;50.076;8.198;2023-04-29T03:34:20;99233.66;;;11.76;100.00
75157;BME280;63736;50.076;8.198;2023-04-29T03:36:46;99226.78;;;11.73;100.00
75157;BME280;63736;50.076;8.198;2023-04-29T03:39:11;99230.69;;;11.69;100.00
75157;BME280;63736;50.076;8.198;2023-04-29T03:41:36;99227.34;;;11.67;100.00
75157;BME280;63736;50.076;8.198;2023-04-29T03:44:02;99235.63;;;11.64;100.00
75157;BME280;63736;50.076;8.198;2023-04-29T03:46:27;99238.47;;;11.62;100.00
75157;BME280;63736;50.076;8.198;2023-04-29T03:48:52;99242.41;;;11.58;100.00
75157;BME280;63736;50.076;8.198;2023-04-29T03:51:23;99246.22;;;11.55;100.00
75157;BME280;63736;50.076;8.198;2023-04-29T03:53:49;99247.19;;;11.54;100.00
75157;BME280;63736;50.076;8.198;2023-04-29T03:56:16;99250.75;;;11.55;100.00
75157;BME280;63736;50.076;8.198;2023-04-29T03:58:41;99247.06;;;11.56;100.00
75157;BME280;63736;50.076;8.198;2023-04-29T04:01:06;99255.06;;;11.56;100.00
75157;BME280;63736;50.076;8.198;2023-04-29T04:03:31;99252.41;;;11.56;100.00
75157;BME280;63736;50.076;8.198;2023-04-29T04:05:57;99257.63;;;11.57;100.00
75157;BME280;63736;50.076;8.198;2023-04-29T04:08:22;99256.78;;;11.57;100.00
75157;BME280;63736;50.076;8.198;2023-04-29T04:10:47;99254.25;;;11.55;100.00
75157;BME280;63736;50.076;8.198;2023-04-29T04:13:13;99257.75;;;11.56;100.00
75157;BME280;63736;50.076;8.198;2023-04-29T04:15:38;99268.34;;;11.57;100.00
75157;BME280;63736;50.076;8.198;2023-04-29T04:18:04;99275.50;;;11.57;100.00
75157;BME280;63736;50.076;8.198;2023-04-29T04:20:30;99273.69;;;11.57;100.00
75157;BME280;63736;50.076;8.198;2023-04-29T04:22:55;99278.88;;;11.59;100.00
75157;BME280;63736;50.076;8.198;2023-04-29T04:25:20;99263.66;;;11.60;100.00
75157;BME280;63736;50.076;8.198;2023-04-29T04:27:46;99277.03;;;11.60;100.00
75157;BME280;63736;50.076;8.198;2023-04-29T04:30:11;99278.75;;;11.61;100.00
75157;BME280;63736;50.076;8.198;2023-04-29T04:32:37;99282.41;;;11.60;100.00
75157;BME280;63736;50.076;8.198;2023-04-29T04:35:04;99285.94;;;11.60;100.00
75157;BME280;63736;50.076;8.198;2023-04-29T04:37:30;99285.06;;;11.60;100.00
75157;BME280;63736;50.076;8.198;2023-04-29T04:39:56;99289.72;;;11.57;100.00
75157;BME280;63736;50.076;8.198;2023-04-29T04:42:21;99295.91;;;11.58;100.00
75157;BME280;63736;50.076;8.198;2023-04-29T04:44:47;99302.09;;;11.58;100.00
75157;BME280;63736;50.076;8.198;2023-04-29T04:47:12;99307.59;;;11.57;100.00
75157;BME280;63736;50.076;8.198;2023-04-29T04:49:38;99310.28;;;11.57;100.00
75157;BME280;63736;50.076;8.198;2023-04-29T04:52:03;99310.13;;;11.58;100.00
75157;BME280;63736;50.076;8.198;2023-04-29T04:54:29;99317.16;;;11.60;100.00
75157;BME280;63736;50.076;8.198;2023-04-29T04:56:55;99317.03;;;11.61;100.00
75157;BME280;63736;50.076;8.198;2023-04-29T04:59:20;99328.59;;;11.62;100.00
75157;BME280;63736;50.076;8.198;2023-04-29T05:01:45;99327.47;;;11.64;100.00
75157;BME280;63736;50.076;8.198;2023-04-29T05:04:11;99314.91;;;11.65;100.00
75157;BME280;63736;50.076;8.198;2023-04-29T05:06:36;99326.34;;;11.67;100.00
75157;BME280;63736;50.076;8.198;2023-04-29T05:09:01;99332.38;;;11.69;100.00
75157;BME280;63736;50.076;8.198;2023-04-29T05:11:27;99330.13;;;11.74;100.00
75157;BME280;63736;50.076;8.198;2023-04-29T05:13:52;99338.44;;;11.81;100.00
75157;BME280;63736;50.076;8.198;2023-04-29T05:16:18;99340.69;;;11.85;100.00
75157;BME280;63736;50.076;8.198;2023-04-29T05:18:44;99338.59;;;11.89;100.00
75157;BME280;63736;50.076;8.198;2023-04-29T05:21:11;99344.94;;;11.98;100.00
75157;BME280;63736;50.076;8.198;2023-04-29T05:23:36;99343.66;;;12.12;100.00
75157;BME280;63736;50.076;8.198;2023-04-29T05:26:01;99339.25;;;12.30;100.00
75157;BME280;63736;50.076;8.198;2023-04-29T05:28:27;99346.69;;;12.46;100.00
75157;BME280;63736;50.076;8.198;2023-04-29T05:30:52;99350.59;;;12.62;100.00
75157;BME280;63736;50.076;8.198;2023-04-29T05:33:18;99349.41;;;12.74;100.00
75157;BME280;63736;50.076;8.198;2023-04-29T05:35:43;99352.19;;;12.82;100.00
75157;BME280;63736;50.076;8.198;2023-04-29T05:38:08;99351.47;;;12.90;100.00
75157;BME280;63736;50.076;8.198;2023-04-29T05:40:34;99350.25;;;13.02;100.00
75157;BME280;63736;50.076;8.198;2023-04-29T05:43:00;99353.97;;;13.19;100.00
75157;BME280;63736;50.076;8.198;2023-04-29T05:45:26;99360.63;;;13.43;100.00
75157;BME280;63736;50.076;8.198;2023-04-29T05:47:51;99363.66;;;13.58;100.00
75157;BME280;63736;50.076;8.198;2023-04-29T05:50:16;99368.84;;;13.60;100.00
75157;BME280;63736;50.076;8.198;2023-04-29T05:52:42;99382.13;;;13.61;100.00
75157;BME280;63736;50.076;8.198;2023-04-29T05:55:08;99384.72;;;13.53;100.00
75157;BME280;63736;50.076;8.198;2023-04-29T05:57:33;99392.63;;;13.54;100.00
75157;BME280;63736;50.076;8.198;2023-04-29T05:59:58;99402.38;;;13.55;100.00
75157;BME280;63736;50.076;8.198;2023-04-29T06:02:25;99408.72;;;13.54;100.00
75157;BME280;63736;50.076;8.198;2023-04-29T06:04:50;99403.44;;;13.45;100.00
75157;BME280;63736;50.076;8.198;2023-04-29T06:07:16;99413.03;;;13.47;100.00
75157;BME280;63736;50.076;8.198;2023-04-29T06:09:41;99408.91;;;13.71;100.00
75157;BME280;63736;50.076;8.198;2023-04-29T06:12:08;99418.97;;;13.87;100.00
75157;BME280;63736;50.076;8.198;2023-04-29T06:14:33;99425.56;;;13.75;100.00
75157;BME280;63736;50.076;8.198;2023-04-29T06:16:58;99432.56;;;13.58;100.00
75157;BME280;63736;50.076;8.198;2023-04-29T06:19:24;99430.53;;;13.42;100.00
75157;BME280;63736;50.076;8.198;2023-04-29T06:21:49;99429.16;;;13.37;100.00
75157;BME280;63736;50.076;8.198;2023-04-29T06:24:15;99419.66;;;13.43;100.00
75157;BME280;63736;50.076;8.198;2023-04-29T06:26:40;99426.81;;;13.52;100.00
75157;BME280;63736;50.076;8.198;2023-04-29T06:29:05;99420.84;;;13.59;100.00
75157;BME280;63736;50.076;8.198;2023-04-29T06:31:31;99422.53;;;13.60;100.00
75157;BME280;63736;50.076;8.198;2023-04-29T06:33:56;99423.09;;;13.63;100.00
75157;BME280;63736;50.076;8.198;2023-04-29T06:36:21;99428.44;;;13.63;100.00
75157;BME280;63736;50.076;8.198;2023-04-29T06:38:47;99430.91;;;13.57;100.00
75157;BME280;63736;50.076;8.198;2023-04-29T06:41:12;99433.94;;;13.44;100.00
75157;BME280;63736;50.076;8.198;2023-04-29T06:43:37;99437.34;;;13.36;100.00
75157;BME280;63736;50.076;8.198;2023-04-29T06:46:02;99438.63;;;13.32;100.00
75157;BME280;63736;50.076;8.198;2023-04-29T06:48:28;99434.69;;;13.26;100.00
75157;BME280;63736;50.076;8.198;2023-04-29T06:50:55;99442.06;;;13.24;100.00
75157;BME280;63736;50.076;8.198;2023-04-29T06:53:21;99442.78;;;13.16;100.00
75157;BME280;63736;50.076;8.198;2023-04-29T06:55:47;99452.81;;;13.14;100.00
75157;BME280;63736;50.076;8.198;2023-04-29T06:58:14;99441.66;;;13.19;100.00
75157;BME280;63736;50.076;8.198;2023-04-29T07:00:43;99450.22;;;13.22;100.00
75157;BME280;63736;50.076;8.198;2023-04-29T07:03:09;99452.78;;;13.24;100.00
75157;BME280;63736;50.076;8.198;2023-04-29T07:05:35;99452.88;;;13.32;100.00
75157;BME280;63736;50.076;8.198;2023-04-29T07:08:01;99451.34;;;13.40;100.00
75157;BME280;63736;50.076;8.198;2023-04-29T07:10:26;99454.09;;;13.48;100.00
75157;BME280;63736;50.076;8.198;2023-04-29T07:12:52;99459.00;;;13.52;100.00
75157;BME280;63736;50.076;8.198;2023-04-29T07:15:17;99453.63;;;13.52;100.00
75157;BME280;63736;50.076;8.198;2023-04-29T07:17:43;99467.31;;;13.59;100.00
75157;BME280;63736;50.076;8.198;2023-04-29T07:20:08;99479.84;;;13.68;100.00
75157;BME280;63736;50.076;8.198;2023-04-29T07:22:34;99474.72;;;13.75;100.00
75157;BME280;63736;50.076;8.198;2023-04-29T07:24:59;99482.00;;;13.83;100.00
75157;BME280;63736;50.076;8.198;2023-04-29T07:27:25;99483.56;;;13.85;100.00
75157;BME280;63736;50.076;8.198;2023-04-29T07:29:50;99490.63;;;13.86;100.00
75157;BME280;63736;50.076;8.198;2023-04-29T07:32:16;99488.91;;;13.85;100.00
75157;BME280;63736;50.076;8.198;2023-04-29T07:34:41;99488.22;;;13.83;100.00
75157;BME280;63736;50.076;8.198;2023-04-29T07:37:07;99495.59;;;13.81;100.00
75157;BME280;63736;50.076;8.198;2023-04-29T07:39:32;99499.13;;;13.82;100.00
75157;BME280;63736;50.076;8.198;2023-04-29T07:41:59;99499.03;;;13.74;100.00
75157;BME280;63736;50.076;8.198;2023-04-29T07:44:24;99501.59;;;13.65;100.00
75157;BME280;63736;50.076;8.198;2023-04-29T07:46:50;99505.16;;;13.66;100.00
75157;BME280;63736;50.076;8.198;2023-04-29T07:49:15;99509.22;;;13.70;100.00
75157;BME280;63736;50.076;8.198;2023-04-29T07:51:41;99508.06;;;13.73;100.00
75157;BME280;63736;50.076;8.198;2023-04-29T07:54:06;99514.00;;;13.76;100.00
75157;BME280;63736;50.076;8.198;2023-04-29T07:56:31;99510.59;;;13.74;100.00
75157;BME280;63736;50.076;8.198;2023-04-29T07:58:59;99515.28;;;13.72;100.00
75157;BME280;63736;50.076;8.198;2023-04-29T08:01:24;99520.78;;;13.70;100.00
75157;BME280;63736;50.076;8.198;2023-04-29T08:03:49;99522.47;;;13.71;100.00
75157;BME280;63736;50.076;8.198;2023-04-29T08:06:14;99526.31;;;13.69;100.00
75157;BME280;63736;50.076;8.198;2023-04-29T08:08:40;99541.13;;;13.73;100.00
75157;BME280;63736;50.076;8.198;2023-04-29T08:11:06;99537.44;;;13.74;100.00
75157;BME280;63736;50.076;8.198;2023-04-29T08:13:31;99544.66;;;13.74;100.00
75157;BME280;63736;50.076;8.198;2023-04-29T08:15:56;99537.44;;;13.74;100.00
75157;BME280;63736;50.076;8.198;2023-04-29T08:18:23;99543.13;;;13.71;100.00
75157;BME280;63736;50.076;8.198;2023-04-29T08:20:48;99546.41;;;13.65;100.00
75157;BME280;63736;50.076;8.198;2023-04-29T08:23:14;99554.75;;;13.62;100.00
75157;BME280;63736;50.076;8.198;2023-04-29T08:25:43;99564.81;;;13.50;100.00
75157;BME280;63736;50.076;8.198;2023-04-29T08:28:08;99570.22;;;13.40;100.00
75157;BME280;63736;50.076;8.198;2023-04-29T08:30:37;99561.06;;;13.23;100.00
75157;BME280;63736;50.076;8.198;2023-04-29T08:33:02;99565.03;;;13.09;100.00
75157;BME280;63736;50.076;8.198;2023-04-29T08:35:27;99573.66;;;13.03;100.00
75157;BME280;63736;50.076;8.198;2023-04-29T08:37:53;99575.22;;;12.96;100.00
75157;BME280;63736;50.076;8.198;2023-04-29T08:40:18;99581.88;;;12.82;100.00
75157;BME280;63736;50.076;8.198;2023-04-29T08:42:44;99580.44;;;12.68;100.00
75157;BME280;63736;50.076;8.198;2023-04-29T08:45:09;99578.34;;;12.62;100.00
75157;BME280;63736;50.076;8.198;2023-04-29T08:47:35;99581.44;;;12.57;100.00
75157;BME280;63736;50.076;8.198;2023-04-29T08:50:04;99589.06;;;12.52;100.00
75157;BME280;63736;50.076;8.198;2023-04-29T08:52:30;99588.38;;;12.50;100.00
75157;BME280;63736;50.076;8.198;2023-04-29T08:54:57;99592.28;;;12.46;100.00
75157;BME280;63736;50.076;8.198;2023-04-29T08:57:25;99592.44;;;12.44;100.00
75157;BME280;63736;50.076;8.198;2023-04-29T08:59:50;99589.50;;;12.47;100.00
75157;BME280;63736;50.076;8.198;2023-04-29T09:02:16;99588.06;;;12.53;100.00
75157;BME280;63736;50.076;8.198;2023-04-29T09:04:52;99586.25;;;12.63;100.00
75157;BME280;63736;50.076;8.198;2023-04-29T09:07:20;99595.53;;;12.69;100.00
75157;BME280;63736;50.076;8.198;2023-04-29T09:09:47;99593.16;;;12.76;100.00
75157;BME280;63736;50.076;8.198;2023-04-29T09:12:12;99595.97;;;12.84;100.00
75157;BME280;63736;50.076;8.198;2023-04-29T09:14:38;99598.78;;;12.92;100.00
75157;BME280;63736;50.076;8.198;2023-04-29T09:17:03;99594.00;;;12.96;100.00
75157;BME280;63736;50.076;8.198;2023-04-29T09:19:33;99604.69;;;13.05;100.00
75157;BME280;63736;50.076;8.198;2023-04-29T09:22:00;99597.38;;;13.17;100.00
75157;BME280;63736;50.076;8.198;2023-04-29T09:24:27;99597.06;;;13.20;100.00
75157;BME280;63736;50.076;8.198;2023-04-29T09:26:53;99601.16;;;13.25;100.00
75157;BME280;63736;50.076;8.198;2023-04-29T09:29:19;99608.63;;;13.31;100.00
75157;BME280;63736;50.076;8.198;2023-04-29T09:31:45;99600.56;;;13.41;100.00
75157;BME280;63736;50.076;8.198;2023-04-29T09:34:10;99609.19;;;13.44;100.00
75157;BME280;63736;50.076;8.198;2023-04-29T09:36:40;99604.69;;;13.45;100.00
75157;BME280;63736;50.076;8.198;2023-04-29T09:39:08;99618.47;;;13.50;100.00
75157;BME280;63736;50.076;8.198;2023-04-29T09:41:57;99622.44;;;13.36;97.08
75157;BME280;63736;50.076;8.198;2023-04-29T09:44:32;99616.53;;;13.22;97.70
75157;BME280;63736;50.076;8.198;2023-04-29T09:47:03;99628.28;;;13.21;100.00
75157;BME280;63736;50.076;8.198;2023-04-29T09:49:40;99629.56;;;13.17;100.00
75157;BME280;63736;50.076;8.198;2023-04-29T09:52:13;99631.09;;;13.10;100.00
75157;BME280;63736;50.076;8.198;2023-04-29T09:54:40;99634.91;;;13.08;99.22
75157;BME280;63736;50.076;8.198;2023-04-29T09:57:06;99643.50;;;13.01;99.61
75157;BME280;63736;50.076;8.198;2023-04-29T09:59:37;99643.66;;;13.00;99.03
75157;BME280;63736;50.076;8.198;2023-04-29T10:02:13;99640.56;;;13.04;100.00
75157;BME280;63736;50.076;8.198;2023-04-29T10:04:40;99642.53;;;13.12;100.00
75157;BME280;63736;50.076;8.198;2023-04-29T10:07:07;99637.16;;;13.22;99.70
75157;BME280;63736;50.076;8.198;2023-04-29T10:09:35;99638.44;;;13.37;100.00
75157;BME280;63736;50.076;8.198;2023-04-29T10:12:04;99630.63;;;13.54;99.72
75157;BME280;63736;50.076;8.198;2023-04-29T10:14:38;99635.38;;;13.70;99.31
75157;BME280;63736;50.076;8.198;2023-04-29T10:17:17;99642.53;;;13.89;98.03
75157;BME280;63736;50.076;8.198;2023-04-29T10:20:02;99632.28;;;14.02;93.97
75157;BME280;63736;50.076;8.198;2023-04-29T10:22:44;99637.75;;;14.11;91.44
75157;BME280;63736;50.076;8.198;2023-04-29T10:25:11;99635.84;;;14.21;91.90
75157;BME280;63736;50.076;8.198;2023-04-29T10:27:39;99633.69;;;14.34;90.25
75157;BME280;63736;50.076;8.198;2023-04-29T10:30:08;99637.78;;;14.57;89.33
75157;BME280;63736;50.076;8.198;2023-04-29T10:32:36;99631.81;;;14.81;88.76
75157;BME280;63736;50.076;8.198;2023-04-29T10:35:06;99636.03;;;15.01;85.73
75157;BME280;63736;50.076;8.198;2023-04-29T10:37:34;99635.88;;;15.03;80.24
75157;BME280;63736;50.076;8.198;2023-04-29T10:42:51;99639.25;;;15.23;82.00
75157;BME280;63736;50.076;8.198;2023-04-29T10:50:27;99645.44;;;15.68;76.59
75157;BME280;63736;50.076;8.198;2023-04-29T10:52:56;99642.34;;;15.81;76.54
75157;BME280;63736;50.076;8.198;2023-04-29T10:55:23;99651.16;;;15.91;76.91
75157;BME280;63736;50.076;8.198;2023-04-29T10:57:50;99641.53;;;15.89;76.40
75157;BME280;63736;50.076;8.198;2023-04-29T11:00:26;99643.53;;;15.86;77.41
75157;BME280;63736;50.076;8.198;2023-04-29T11:02:53;99643.03;;;15.83;79.15
75157;BME280;63736;50.076;8.198;2023-04-29T11:05:29;99639.78;;;15.79;79.73
75157;BME280;63736;50.076;8.198;2023-04-29T11:08:18;99642.56;;;15.69;78.52
75157;BME280;63736;50.076;8.198;2023-04-29T11:10:59;99646.00;;;15.53;77.53
75157;BME280;63736;50.076;8.198;2023-04-29T11:13:29;99639.13;;;15.33;76.64
75157;BME280;63736;50.076;8.198;2023-04-29T11:16:09;99637.06;;;15.27;76.88
75157;BME280;63736;50.076;8.198;2023-04-29T11:18:36;99641.41;;;15.19;73.30
75157;BME280;63736;50.076;8.198;2023-04-29T11:21:21;99644.53;;;15.15;72.83
75157;BME280;63736;50.076;8.198;2023-04-29T11:23:46;99634.91;;;15.30;74.11
75157;BME280;63736;50.076;8.198;2023-04-29T11:26:18;99644.44;;;15.69;75.12
75157;BME280;63736;50.076;8.198;2023-04-29T11:28:43;99644.72;;;15.84;70.49
75157;BME280;63736;50.076;8.198;2023-04-29T11:31:09;99633.41;;;16.15;70.49
75157;BME280;63736;50.076;8.198;2023-04-29T11:33:34;99626.97;;;16.50;67.71
75157;BME280;63736;50.076;8.198;2023-04-29T11:36:00;99632.44;;;16.92;66.30
75157;BME280;63736;50.076;8.198;2023-04-29T11:38:26;99637.00;;;17.24;63.61
75157;BME280;63736;50.076;8.198;2023-04-29T11:40:53;99635.47;;;17.30;62.93
75157;BME280;63736;50.076;8.198;2023-04-29T11:43:19;99642.38;;;17.24;63.08
75157;BME280;63736;50.076;8.198;2023-04-29T11:45:46;99642.72;;;17.05;63.27
75157;BME280;63736;50.076;8.198;2023-04-29T11:48:18;99642.16;;;16.68;63.74
75157;BME280;63736;50.076;8.198;2023-04-29T11:50:45;99647.16;;;16.46;65.41
75157;BME280;63736;50.076;8.198;2023-04-29T11:53:11;99639.75;;;16.40;66.75
75157;BME280;63736;50.076;8.198;2023-04-29T11:55:36;99651.00;;;16.44;66.69
75157;BME280;63736;50.076;8.198;2023-04-29T11:58:03;99639.09;;;16.55;67.32
75157;BME280;63736;50.076;8.198;2023-04-29T12:00:29;99629.88;;;16.82;68.18
75157;BME280;63736;50.076;8.198;2023-04-29T12:02:55;99625.19;;;17.09;65.56
75157;BME280;63736;50.076;8.198;2023-04-29T12:05:24;99629.41;;;17.28;64.58
75157;BME280;63736;50.076;8.198;2023-04-29T12:07:50;99624.81;;;17.53;63.74
75157;BME280;63736;50.076;8.198;2023-04-29T12:10:15;99624.91;;;17.76;62.82
75157;BME280;63736;50.076;8.198;2023-04-29T12:12:41;99620.97;;;18.04;62.09
75157;BME280;63736;50.076;8.198;2023-04-29T12:15:08;99624.19;;;18.39;60.36
75157;BME280;63736;50.076;8.198;2023-04-29T12:17:34;99629.97;;;18.36;56.89
75157;BME280;63736;50.076;8.198;2023-04-29T12:19:59;99629.94;;;18.04;56.88
75157;BME280;63736;50.076;8.198;2023-04-29T12:22:32;99640.16;;;17.61;57.31
75157;BME280;63736;50.076;8.198;2023-04-29T12:24:58;99638.66;;;17.33;59.89
75157;BME280;63736;50.076;8.198;2023-04-29T12:27:23;99634.78;;;17.36;60.19
75157;BME280;63736;50.076;8.198;2023-04-29T12:29:51;99627.38;;;17.38;60.26
75157;BME280;63736;50.076;8.198;2023-04-29T12:32:17;99633.59;;;17.39;61.53
75157;BME280;63736;50.076;8.198;2023-04-29T12:34:45;99627.53;;;17.53;61.94
75157;BME280;63736;50.076;8.198;2023-04-29T12:37:11;99635.41;;;17.71;62.15
75157;BME280;63736;50.076;8.198;2023-04-29T12:39:37;99635.91;;;17.75;60.68
75157;BME280;63736;50.076;8.198;2023-04-29T12:42:02;99633.91;;;17.60;60.25
75157;BME280;63736;50.076;8.198;2023-04-29T12:44:37;99636.34;;;17.22;61.17
75157;BME280;63736;50.076;8.198;2023-04-29T12:47:07;99642.06;;;17.19;63.02
75157;BME280;63736;50.076;8.198;2023-04-29T12:49:33;99649.66;;;17.24;62.22
75157;BME280;63736;50.076;8.198;2023-04-29T12:51:58;99651.50;;;17.07;61.24
75157;BME280;63736;50.076;8.198;2023-04-29T12:54:24;99651.69;;;17.13;62.71
75157;BME280;63736;50.076;8.198;2023-04-29T12:56:49;99653.03;;;17.26;63.28
75157;BME280;63736;50.076;8.198;2023-04-29T12:59:15;99653.03;;;17.26;63.15
75157;BME280;63736;50.076;8.198;2023-04-29T13:01:41;99660.25;;;17.33;64.05
75157;BME280;63736;50.076;8.198;2023-04-29T13:04:06;99659.59;;;17.15;63.13